New Orleans, Louisiana
Traffic Map
Current Weather Conditions
New Orleans, Louisiana
Broken Clouds
Broken Clouds
76°
Feels Like: 76°
Wind Chill: 76° Ceiling: 5500
Heat Index: 76° Visibility: 10mi
Dew Point: 64° Wind: 8mph
Humidity: 67% Direction: 340° (NNW)
Pressure: 30.25in Gusts: 0mph
Raw Report DataKNEW 301653Z 34007KT 10SM FEW033 SCT044 BKN055 24/18 A3025 RMK AO2 SLP237 T02440178
Traffic Incident Summary
Active as of:
Severity:
Category:
InformationThere was an issue retrieving the traffic information for this location. Please try a different location or try again shortly.
Advertisements
Track Severe Weather on mobile